createdAt,value
2018-07-03T00:01:03.542Z,14.96
2018-07-03T00:02:13.771Z,14.88
2018-07-03T00:03:23.905Z,14.83
2018-07-03T00:04:33.526Z,14.87
2018-07-03T00:05:43.767Z,14.75
2018-07-03T00:06:53.626Z,14.72
2018-07-03T00:08:03.824Z,14.7
2018-07-03T00:09:14.175Z,14.72
2018-07-03T00:10:24.042Z,14.65
2018-07-03T00:11:33.720Z,14.65
2018-07-03T00:12:43.874Z,14.66
2018-07-03T00:13:54.099Z,14.52
2018-07-03T00:15:03.964Z,14.54
2018-07-03T00:16:13.953Z,14.52
2018-07-03T00:17:23.879Z,14.45
2018-07-03T00:18:33.846Z,14.43
2018-07-03T00:19:43.500Z,14.36
2018-07-03T00:20:53.810Z,14.39
2018-07-03T00:22:03.979Z,14.39
2018-07-03T00:23:14.207Z,14.47
2018-07-03T00:24:24.419Z,14.43
2018-07-03T00:25:34.279Z,14.36
2018-07-03T00:26:44.438Z,14.39
2018-07-03T00:27:54.622Z,14.34
2018-07-03T00:29:04.782Z,14.47
2018-07-03T00:30:15.087Z,14.26
2018-07-03T00:31:25.391Z,14.21
2018-07-03T00:32:35.336Z,14.28
2018-07-03T00:33:45.482Z,14.26
2018-07-03T00:34:55.637Z,14.26
2018-07-03T00:36:05.811Z,14.26
2018-07-03T00:38:40.761Z,14.18
2018-07-03T00:39:50.940Z,14.25
2018-07-03T00:41:00.839Z,14.22
2018-07-03T00:42:10.959Z,14.14
2018-07-03T00:43:21.280Z,14.19
2018-07-03T00:44:32.121Z,14.13
2018-07-03T00:45:42.278Z,14.14
2018-07-03T00:46:52.303Z,14.13
2018-07-03T00:48:02.505Z,14.13
2018-07-03T00:49:12.771Z,14.07
2018-07-03T00:50:23.100Z,14.1
2018-07-03T00:51:33.234Z,14.13
2018-07-03T00:52:43.364Z,14.21
2018-07-03T00:53:53.544Z,14.07
2018-07-03T00:55:03.693Z,14.1
2018-07-03T00:56:13.811Z,14.1
2018-07-03T00:57:23.938Z,14.14
2018-07-03T00:58:34.106Z,14.14
2018-07-03T00:59:44.304Z,14.14
2018-07-03T01:00:54.444Z,14.18
2018-07-03T01:02:04.663Z,14.11
2018-07-03T01:03:14.817Z,14.11
2018-07-03T01:04:25.297Z,14.11
2018-07-03T01:05:35.573Z,14.11
2018-07-03T01:06:45.722Z,14.04
2018-07-03T01:07:55.637Z,14.11
2018-07-03T01:09:05.760Z,14.07
2018-07-03T01:10:15.883Z,13.99
2018-07-03T01:11:25.773Z,14.03
2018-07-03T01:12:35.899Z,13.92
2018-07-03T01:13:46.034Z,13.84
2018-07-03T01:14:56.171Z,13.84
2018-07-03T01:16:06.045Z,13.85
2018-07-03T01:17:16.171Z,13.81
2018-07-03T01:18:26.302Z,13.73
2018-07-03T01:19:36.515Z,13.64
2018-07-03T01:20:46.869Z,13.52
2018-07-03T01:21:57.042Z,13.54
2018-07-03T01:23:07.179Z,13.46
2018-07-03T01:24:17.365Z,13.41
2018-07-03T01:25:27.515Z,13.41
2018-07-03T01:26:37.635Z,13.33
2018-07-03T01:27:47.801Z,13.31
2018-07-03T01:28:57.704Z,13.3
2018-07-03T01:30:07.862Z,13.34
2018-07-03T01:31:17.991Z,13.36
2018-07-03T01:32:28.123Z,13.3
2018-07-03T01:33:38.316Z,13.34
2018-07-03T01:34:48.510Z,13.36
2018-07-03T01:35:58.719Z,13.3
2018-07-03T01:37:08.918Z,13.29
2018-07-03T01:38:19.090Z,13.19
2018-07-03T01:39:29.243Z,13.3
2018-07-03T01:40:39.392Z,13.19
2018-07-03T01:41:49.534Z,13.27
2018-07-03T01:42:59.306Z,13.29
2018-07-03T01:44:09.433Z,13.22
2018-07-03T01:45:19.603Z,13.22
2018-07-03T01:46:29.730Z,13.12
2018-07-03T01:47:39.954Z,13.15
2018-07-03T01:48:50.636Z,13.16
2018-07-03T01:50:00.895Z,13.15
2018-07-03T01:51:11.034Z,13.16
2018-07-03T01:52:21.140Z,13.21
2018-07-03T01:53:32.231Z,13.26
2018-07-03T01:54:42.031Z,13.19
2018-07-03T01:55:52.145Z,13.27
2018-07-03T01:57:02.327Z,13.27
2018-07-03T01:58:12.485Z,13.26
2018-07-03T01:59:22.368Z,13.19
2018-07-03T02:00:32.227Z,13.27
2018-07-03T02:01:42.353Z,13.11
2018-07-03T02:02:52.550Z,13.21
2018-07-03T02:04:02.715Z,13.08
2018-07-03T02:05:12.859Z,13.08
2018-07-03T02:06:23.124Z,13.04
2018-07-03T02:07:33.027Z,13.06
2018-07-03T02:08:43.185Z,13.06
2018-07-03T02:09:53.318Z,13.12
2018-07-03T02:11:03.471Z,13.04
2018-07-03T02:12:13.339Z,13.04
2018-07-03T02:13:23.448Z,13.01
2018-07-03T02:14:34.826Z,12.96
2018-07-03T02:15:44.608Z,13
2018-07-03T02:16:54.720Z,12.93
2018-07-03T02:18:04.604Z,12.97
2018-07-03T02:19:14.727Z,12.85
2018-07-03T02:20:24.848Z,12.82
2018-07-03T02:21:34.711Z,12.8
2018-07-03T02:22:45.094Z,12.78
2018-07-03T02:23:54.877Z,12.71
2018-07-03T02:25:05.152Z,12.75
2018-07-03T02:26:15.545Z,12.81
2018-07-03T02:27:25.666Z,12.74
2018-07-03T02:28:35.790Z,12.63
2018-07-03T02:29:45.965Z,12.71
2018-07-03T02:30:56.112Z,12.68
2018-07-03T02:32:06.373Z,12.7
2018-07-03T02:33:16.745Z,12.72
2018-07-03T02:34:26.919Z,12.74
2018-07-03T02:35:36.435Z,12.8
2018-07-03T02:36:46.303Z,12.77
2018-07-03T02:37:56.573Z,12.75
2018-07-03T02:39:06.622Z,12.63
2018-07-03T02:40:17.047Z,12.66
2018-07-03T02:41:27.324Z,12.7
2018-07-03T02:42:37.449Z,12.71
2018-07-03T02:43:47.598Z,12.68
2018-07-03T02:44:57.757Z,12.63
2018-07-03T02:46:07.336Z,12.77
2018-07-03T02:47:17.058Z,12.81
2018-07-03T02:48:27.178Z,12.75
2018-07-03T02:49:37.438Z,12.78
2018-07-03T02:50:47.651Z,12.78
2018-07-03T02:51:58.051Z,12.82
2018-07-03T02:53:07.899Z,12.72
2018-07-03T02:54:18.048Z,12.74
2018-07-03T02:55:27.942Z,12.82
2018-07-03T02:56:38.131Z,12.78
2018-07-03T02:57:48.129Z,12.74
2018-07-03T02:58:59.532Z,12.8
2018-07-03T03:00:09.866Z,12.8
2018-07-03T03:01:20.001Z,12.77
2018-07-03T03:02:30.846Z,12.81
2018-07-03T03:03:41.018Z,12.84
2018-07-03T03:04:51.215Z,12.84
2018-07-03T03:06:01.397Z,12.78
2018-07-03T03:07:11.637Z,12.74
2018-07-03T03:08:22.134Z,12.77
2018-07-03T03:09:32.285Z,12.82
2018-07-03T03:10:42.084Z,12.82
2018-07-03T03:11:52.266Z,12.84
2018-07-03T03:13:02.048Z,12.81
2018-07-03T03:14:12.200Z,12.84
2018-07-03T03:15:22.350Z,12.81
2018-07-03T03:16:32.679Z,12.81
2018-07-03T03:17:42.793Z,12.82
2018-07-03T03:18:53.035Z,12.93
2018-07-03T03:20:03.217Z,12.93
2018-07-03T03:21:13.387Z,12.92
2018-07-03T03:22:23.636Z,12.9
2018-07-03T03:23:33.953Z,12.85
2018-07-03T03:24:44.119Z,12.9
2018-07-03T03:25:54.286Z,12.85
2018-07-03T03:27:04.476Z,12.95
2018-07-03T03:28:14.114Z,12.93
2018-07-03T03:29:24.346Z,12.9
2018-07-03T03:30:34.598Z,12.96
2018-07-03T03:31:44.624Z,12.89
2018-07-03T03:32:55.726Z,12.95
2018-07-03T03:34:06.307Z,12.96
2018-07-03T03:35:16.460Z,12.96
2018-07-03T03:36:26.620Z,12.9
2018-07-03T03:37:36.962Z,12.82
2018-07-03T03:38:46.834Z,12.81
2018-07-03T03:39:57.016Z,12.78
2018-07-03T03:41:07.172Z,12.72
2018-07-03T03:42:17.393Z,12.72
2018-07-03T03:43:27.612Z,12.62
2018-07-03T03:44:37.808Z,12.7
2018-07-03T03:45:48.117Z,12.7
2018-07-03T03:46:58.279Z,12.8
2018-07-03T03:48:08.508Z,12.74
2018-07-03T03:49:18.688Z,12.77
2018-07-03T03:50:28.899Z,12.8
2018-07-03T03:51:39.128Z,12.84
2018-07-03T03:52:49.358Z,12.8
2018-07-03T03:53:59.890Z,12.74
2018-07-03T03:55:10.043Z,12.72
2018-07-03T03:56:19.796Z,12.81
2018-07-03T03:57:29.922Z,12.63
2018-07-03T03:58:39.808Z,12.6
2018-07-03T03:59:49.761Z,12.75
2018-07-03T04:01:00.155Z,12.66
2018-07-03T04:02:09.948Z,12.74
2018-07-03T04:03:20.071Z,12.8
2018-07-03T04:04:30.200Z,12.71
2018-07-03T04:05:40.376Z,12.81
2018-07-03T04:06:50.525Z,12.89
2018-07-03T04:08:00.188Z,12.78
2018-07-03T04:09:09.694Z,12.81
2018-07-03T04:10:19.825Z,12.97
2018-07-03T04:11:29.664Z,12.92
2018-07-03T04:12:39.808Z,12.9
2018-07-03T04:13:49.956Z,12.96
2018-07-03T04:15:00.078Z,13.08
2018-07-03T04:16:10.245Z,12.97
2018-07-03T04:17:52.315Z,13.04
2018-07-03T04:19:02.476Z,13.08
2018-07-03T04:20:12.333Z,13.13
2018-07-03T04:21:22.493Z,13.12
2018-07-03T04:22:32.690Z,13.18
2018-07-03T04:23:42.952Z,13.22
2018-07-03T04:24:53.149Z,13.29
2018-07-03T04:26:03.034Z,13.37
2018-07-03T04:27:13.206Z,13.31
2018-07-03T04:28:23.348Z,13.38
2018-07-03T04:29:33.592Z,13.41
2018-07-03T04:30:43.781Z,13.44
2018-07-03T04:31:54.112Z,13.45
2018-07-03T04:33:04.489Z,13.46
2018-07-03T04:34:14.521Z,13.46
2018-07-03T04:35:24.698Z,13.54
2018-07-03T04:36:34.961Z,13.54
2018-07-03T04:37:45.114Z,13.7
2018-07-03T04:38:54.863Z,13.66
2018-07-03T04:40:05.018Z,13.59
2018-07-03T04:41:15.234Z,13.55
2018-07-03T04:42:24.837Z,13.61
2018-07-03T04:43:34.968Z,13.73
2018-07-03T04:44:44.846Z,13.7
2018-07-03T04:45:55.017Z,13.82
2018-07-03T04:47:05.247Z,13.81
2018-07-03T04:48:15.194Z,13.84
2018-07-03T04:49:25.420Z,13.94
2018-07-03T04:50:35.691Z,13.86
2018-07-03T04:51:45.908Z,14.06
2018-07-03T04:52:56.677Z,14.02
2018-07-03T04:54:06.813Z,14.09
2018-07-03T04:55:16.947Z,14.14
2018-07-03T04:56:26.852Z,14.13
2018-07-03T04:57:36.987Z,14.18
2018-07-03T04:58:47.154Z,14.19
2018-07-03T04:59:57.360Z,14.25
2018-07-03T05:01:07.678Z,14.43
2018-07-03T05:02:17.913Z,14.37
2018-07-03T05:03:28.085Z,14.37
2018-07-03T05:04:38.052Z,14.51
2018-07-03T05:05:48.179Z,14.52
2018-07-03T05:06:58.328Z,14.52
2018-07-03T05:08:08.422Z,14.6
2018-07-03T05:09:18.647Z,14.67
2018-07-03T05:10:28.865Z,14.75
2018-07-03T05:11:39.120Z,14.75
2018-07-03T05:12:49.284Z,14.81
2018-07-03T05:13:59.570Z,14.81
2018-07-03T05:15:09.745Z,14.88
2018-07-03T05:16:19.889Z,15
2018-07-03T05:17:30.118Z,15
2018-07-03T05:18:40.480Z,15.08
2018-07-03T05:19:50.365Z,15.14
2018-07-03T05:21:00.534Z,15.09
2018-07-03T05:22:10.883Z,15.21
2018-07-03T05:23:21.269Z,15.21
2018-07-03T05:24:31.531Z,15.27
2018-07-03T05:25:41.804Z,15.27
2018-07-03T05:26:52.173Z,15.38
2018-07-03T05:28:02.343Z,15.3
2018-07-03T05:29:12.465Z,15.36
2018-07-03T05:30:22.598Z,15.42
2018-07-03T05:31:33.044Z,15.42
2018-07-03T05:32:43.578Z,15.46
2018-07-03T05:33:53.747Z,15.53
2018-07-03T05:35:03.859Z,15.57
2018-07-03T05:36:14.005Z,15.63
2018-07-03T05:37:23.950Z,15.66
2018-07-03T05:38:34.115Z,15.7
2018-07-03T05:39:44.259Z,15.82
2018-07-03T05:40:54.384Z,15.76
2018-07-03T05:42:04.712Z,15.79
2018-07-03T05:43:14.611Z,15.88
2018-07-03T05:44:24.867Z,15.99
2018-07-03T05:45:34.697Z,16.02
2018-07-03T05:46:44.837Z,16.06
2018-07-03T05:47:55.008Z,16.14
2018-07-03T05:49:05.294Z,16.2
2018-07-03T05:50:15.667Z,16.2
2018-07-03T05:51:25.797Z,16.2
2018-07-03T05:52:35.944Z,16.25
2018-07-03T05:53:45.842Z,16.32
2018-07-03T05:54:56.237Z,16.32
2018-07-03T05:56:06.416Z,16.39
2018-07-03T05:57:16.890Z,16.47
2018-07-03T05:58:27.085Z,16.43
2018-07-03T05:59:37.077Z,16.53
2018-07-03T06:00:47.202Z,16.59
2018-07-03T06:01:57.328Z,16.56
2018-07-03T06:03:07.545Z,16.56
2018-07-03T06:04:17.687Z,16.69
2018-07-03T06:05:27.843Z,16.75
2018-07-03T06:06:37.979Z,16.79
2018-07-03T06:07:47.893Z,16.83
2018-07-03T06:08:58.048Z,16.91
2018-07-03T06:10:08.260Z,16.98
2018-07-03T06:11:18.385Z,16.93
2018-07-03T06:12:28.539Z,16.94
2018-07-03T06:13:38.725Z,17.05
2018-07-03T06:14:48.964Z,16.98
2018-07-03T06:15:59.312Z,17.11
2018-07-03T06:17:09.511Z,17.16
2018-07-03T06:18:19.835Z,17.19
2018-07-03T06:19:29.971Z,17.31
2018-07-03T06:20:40.142Z,17.24
2018-07-03T06:21:50.313Z,17.3
2018-07-03T06:23:00.447Z,17.35
2018-07-03T06:24:10.593Z,17.36
2018-07-03T06:25:20.792Z,17.45
2018-07-03T06:26:31.170Z,17.49
2018-07-03T06:27:41.282Z,17.55
2018-07-03T06:28:51.865Z,17.57
2018-07-03T06:30:02.238Z,17.61
2018-07-03T06:31:12.969Z,17.62
2018-07-03T06:32:23.127Z,17.7
2018-07-03T06:33:32.998Z,17.77
2018-07-03T06:34:43.352Z,17.77
2018-07-03T06:35:53.681Z,17.83
2018-07-03T06:37:04.040Z,17.89
2018-07-03T06:38:14.175Z,17.94
2018-07-03T06:39:24.389Z,17.89
2018-07-03T06:40:34.296Z,17.98
2018-07-03T06:41:44.231Z,18.09
2018-07-03T06:42:54.395Z,18.04
2018-07-03T06:44:04.529Z,18.01
2018-07-03T06:45:14.648Z,18.04
2018-07-03T06:46:24.835Z,18.07
2018-07-03T06:47:35.039Z,18.09
2018-07-03T06:48:45.395Z,18.2
2018-07-03T06:49:55.535Z,18.25
2018-07-03T06:51:05.531Z,18.26
2018-07-03T06:52:15.952Z,18.34
2018-07-03T06:53:26.129Z,18.31
2018-07-03T06:54:36.257Z,18.28
2018-07-03T06:55:46.565Z,18.42
2018-07-03T06:56:56.719Z,18.41
2018-07-03T06:58:06.593Z,18.47
2018-07-03T06:59:16.529Z,18.56
2018-07-03T07:00:26.746Z,18.55
2018-07-03T07:01:37.039Z,18.63
2018-07-03T07:02:47.296Z,18.63
2018-07-03T07:03:57.529Z,18.69
2018-07-03T07:05:07.760Z,18.65
2018-07-03T07:06:17.943Z,18.71
2018-07-03T07:07:28.174Z,18.79
2018-07-03T07:08:38.724Z,18.8
2018-07-03T07:09:49.234Z,18.87
2018-07-03T07:10:59.419Z,18.9
2018-07-03T07:12:09.634Z,18.95
2018-07-03T07:13:19.521Z,18.94
2018-07-03T07:14:30.206Z,18.98
2018-07-03T07:15:40.324Z,18.97
2018-07-03T07:16:50.544Z,19
2018-07-03T07:18:00.762Z,19.05
2018-07-03T07:19:10.968Z,19.03
2018-07-03T07:20:21.160Z,19.1
2018-07-03T07:21:31.375Z,19.15
2018-07-03T07:22:41.547Z,19.21
2018-07-03T07:23:51.760Z,19.15
2018-07-03T07:25:01.933Z,19.21
2018-07-03T07:26:11.913Z,19.25
2018-07-03T07:27:22.076Z,19.18
2018-07-03T07:28:32.211Z,19.25
2018-07-03T07:29:42.425Z,19.28
2018-07-03T07:30:52.607Z,19.28
2018-07-03T07:32:02.975Z,19.24
2018-07-03T07:33:13.142Z,19.31
2018-07-03T07:34:23.276Z,19.33
2018-07-03T07:35:33.446Z,19.3
2018-07-03T07:36:43.702Z,19.27
2018-07-03T07:37:53.724Z,19.3
2018-07-03T07:39:03.855Z,19.24
2018-07-03T07:40:14.081Z,19.3
2018-07-03T07:41:24.017Z,19.39
2018-07-03T07:42:34.292Z,19.35
2018-07-03T07:43:44.694Z,19.46
2018-07-03T07:44:54.880Z,19.45
2018-07-03T07:46:05.098Z,19.52
2018-07-03T07:47:14.982Z,19.49
2018-07-03T07:48:25.116Z,19.56
2018-07-03T07:49:35.279Z,19.55
2018-07-03T07:50:45.452Z,19.49
2018-07-03T07:51:55.681Z,19.48
2018-07-03T07:53:05.842Z,19.67
2018-07-03T07:54:16.083Z,19.63
2018-07-03T07:55:26.221Z,19.61
2018-07-03T07:56:36.385Z,19.71
2018-07-03T07:57:46.407Z,19.73
2018-07-03T07:58:56.600Z,19.78
2018-07-03T08:00:06.903Z,19.78
2018-07-03T08:01:17.091Z,19.82
2018-07-03T08:02:27.251Z,19.79
2018-07-03T08:03:37.429Z,19.83
2018-07-03T08:04:47.658Z,19.82
2018-07-03T08:05:57.823Z,19.88
2018-07-03T08:07:08.051Z,19.9
2018-07-03T08:08:18.281Z,19.92
2018-07-03T08:09:28.504Z,19.97
2018-07-03T08:10:38.676Z,20.03
2018-07-03T08:11:48.975Z,20.04
2018-07-03T08:12:59.180Z,20.05
2018-07-03T08:14:09.372Z,20.14
2018-07-03T08:15:19.639Z,20.07
2018-07-03T08:16:29.872Z,20.19
2018-07-03T08:17:39.773Z,20.2
2018-07-03T08:18:49.901Z,20.26
2018-07-03T08:20:00.097Z,20.2
2018-07-03T08:21:10.231Z,20.3
2018-07-03T08:22:20.128Z,20.3
2018-07-03T08:23:30.287Z,20.36
2018-07-03T08:24:40.426Z,20.38
2018-07-03T08:25:50.306Z,20.39
2018-07-03T08:27:00.438Z,20.49
2018-07-03T08:28:10.163Z,20.63
2018-07-03T08:29:20.344Z,20.64
2018-07-03T08:30:30.569Z,20.75
2018-07-03T08:31:40.880Z,20.82
2018-07-03T08:32:51.119Z,20.88
2018-07-03T08:34:01.368Z,21
2018-07-03T08:35:11.618Z,21.03
2018-07-03T08:36:21.656Z,21.13
2018-07-03T08:37:31.885Z,21.25
2018-07-03T08:38:42.037Z,21.23
2018-07-03T08:39:52.237Z,21.41
2018-07-03T08:41:02.457Z,21.5
2018-07-03T08:42:12.361Z,21.68
2018-07-03T08:43:22.227Z,21.65
2018-07-03T08:44:32.368Z,21.81
2018-07-03T08:45:42.500Z,21.94
2018-07-03T08:46:52.740Z,22.02
2018-07-03T08:48:02.954Z,22.05
2018-07-03T08:49:13.164Z,22.2
2018-07-03T08:50:23.391Z,22.31
2018-07-03T08:51:33.408Z,22.38
2018-07-03T08:52:43.785Z,22.45
2018-07-03T08:53:54.017Z,22.58
2018-07-03T08:55:04.480Z,22.86
2018-07-03T08:56:14.572Z,23.02
2018-07-03T08:57:24.748Z,23.17
2018-07-03T08:58:34.916Z,23.16
2018-07-03T08:59:45.185Z,23.51
2018-07-03T09:00:55.626Z,23.88
2018-07-03T09:02:05.343Z,24.5
2018-07-03T09:03:15.121Z,25.21
2018-07-03T09:04:25.252Z,25.87
2018-07-03T09:05:35.405Z,26.56
2018-07-03T09:06:45.560Z,27.27
2018-07-03T09:07:55.985Z,27.9
2018-07-03T09:09:06.121Z,28.27
2018-07-03T09:10:16.261Z,28.81
2018-07-03T09:11:26.456Z,29.32
2018-07-03T09:12:36.749Z,29.47
2018-07-03T09:13:46.898Z,29.44
2018-07-03T09:14:57.084Z,29.55
2018-07-03T09:16:07.341Z,29.8
2018-07-03T09:17:17.517Z,29.89
2018-07-03T09:18:27.681Z,30.03
2018-07-03T09:19:37.948Z,30.12
2018-07-03T09:20:48.126Z,30.2
2018-07-03T09:21:57.758Z,30.33
2018-07-03T09:23:07.966Z,30.35
2018-07-03T09:24:18.127Z,30.54
2018-07-03T09:25:28.279Z,30.72
2018-07-03T09:26:38.296Z,30.83
2018-07-03T09:27:48.500Z,31.04
2018-07-03T09:28:58.667Z,31.19
2018-07-03T09:30:08.835Z,31.38
2018-07-03T09:32:31.432Z,31.47
2018-07-03T09:33:41.686Z,31.54
2018-07-03T09:34:51.863Z,31.54
2018-07-03T09:36:02.071Z,31.63
2018-07-03T09:37:12.279Z,31.57
2018-07-03T09:38:24.846Z,31.66
2018-07-03T09:39:39.465Z,31.61
2018-07-03T09:40:49.728Z,31.66
2018-07-03T09:42:00.029Z,31.47
2018-07-03T09:43:10.228Z,31.25
2018-07-03T09:44:20.479Z,31.32
2018-07-03T09:45:32.982Z,31.32
2018-07-03T09:46:44.562Z,31.3
2018-07-03T09:49:10.075Z,31.5
2018-07-03T09:50:19.956Z,31.63
2018-07-03T09:51:30.121Z,31.73
2018-07-03T09:52:40.342Z,31.72
2018-07-03T09:53:50.571Z,31.72
2018-07-03T09:55:01.393Z,31.76
2018-07-03T09:56:14.084Z,31.72
2018-07-03T09:57:26.120Z,31.84
2018-07-03T09:58:38.699Z,31.82
2018-07-03T09:59:50.241Z,32.06
2018-07-03T10:01:00.673Z,32.28
2018-07-03T10:02:10.936Z,32.25
2018-07-03T10:03:24.113Z,32.36
2018-07-03T10:04:35.316Z,32.26
2018-07-03T10:05:45.464Z,32.47
2018-07-03T10:06:55.654Z,32.6
2018-07-03T10:08:05.861Z,32.38
2018-07-03T10:09:16.098Z,32.31
2018-07-03T10:10:26.065Z,32.29
2018-07-03T10:11:36.221Z,32.31
2018-07-03T10:12:47.526Z,32.09
2018-07-03T10:13:57.766Z,31.97
2018-07-03T10:15:07.934Z,31.94
2018-07-03T10:16:18.068Z,31.92
2018-07-03T10:17:28.258Z,32.02
2018-07-03T10:18:38.438Z,31.79
2018-07-03T10:19:48.346Z,31.54
2018-07-03T10:21:11.270Z,31.35
2018-07-03T10:22:21.437Z,31
2018-07-03T10:23:31.593Z,30.66
2018-07-03T10:24:41.753Z,30.51
2018-07-03T10:25:51.679Z,30.42
2018-07-03T10:27:01.653Z,30.57
2018-07-03T10:28:11.864Z,30.7
2018-07-03T10:29:22.053Z,30.66
2018-07-03T10:30:32.267Z,30.82
2018-07-03T10:31:42.094Z,31.1
2018-07-03T10:32:52.262Z,31.37
2018-07-03T10:34:02.457Z,31.54
2018-07-03T10:35:12.410Z,31.44
2018-07-03T10:36:22.597Z,31.46
2018-07-03T10:37:33.533Z,31.09
2018-07-03T10:38:43.737Z,30.51
2018-07-03T10:39:53.669Z,30.2
2018-07-03T10:41:03.937Z,29.88
2018-07-03T10:42:13.852Z,29.69
2018-07-03T10:43:24.222Z,29.51
2018-07-03T10:44:34.414Z,29.48
2018-07-03T10:45:44.593Z,29.4
2018-07-03T10:46:54.770Z,29.63
2018-07-03T10:48:05.029Z,29.85
2018-07-03T10:49:15.223Z,30.04
2018-07-03T10:50:25.371Z,30.22
2018-07-03T10:51:35.542Z,30.32
2018-07-03T10:52:45.703Z,30.3
2018-07-03T10:53:55.907Z,30.51
2018-07-03T10:55:06.099Z,30.67
2018-07-03T10:56:16.272Z,30.83
2018-07-03T10:57:26.229Z,30.83
2018-07-03T10:58:36.407Z,30.76
2018-07-03T10:59:46.583Z,30.66
2018-07-03T11:00:56.761Z,30.81
2018-07-03T11:02:06.911Z,30.9
2018-07-03T11:03:17.191Z,31.05
2018-07-03T11:04:27.391Z,31.2
2018-07-03T11:05:37.587Z,31.25
2018-07-03T11:06:47.567Z,31.27
2018-07-03T11:07:57.403Z,31.32
2018-07-03T11:09:07.690Z,31.28
2018-07-03T11:10:17.892Z,31.35
2018-07-03T11:11:28.063Z,31.41
2018-07-03T11:12:38.346Z,31.41
2018-07-03T11:13:48.731Z,31.47
2018-07-03T11:14:58.835Z,31.41
2018-07-03T11:16:08.634Z,31.42
2018-07-03T11:17:18.801Z,31.38
2018-07-03T11:18:28.995Z,31.27
2018-07-03T11:19:39.286Z,31.23
2018-07-03T11:20:49.545Z,31.27
2018-07-03T11:21:59.698Z,31.32
2018-07-03T11:23:09.874Z,31.35
2018-07-03T11:24:20.054Z,31.37
2018-07-03T11:25:30.226Z,31.22
2018-07-03T11:26:40.577Z,31.1
2018-07-03T11:27:50.761Z,31.1
2018-07-03T11:29:01.750Z,31.09
2018-07-03T11:30:12.067Z,31.16
2018-07-03T11:31:22.236Z,31.2
2018-07-03T11:32:32.422Z,31.07
2018-07-03T11:33:42.710Z,31.03
2018-07-03T11:34:53.162Z,30.98
2018-07-03T11:36:03.324Z,31.12
2018-07-03T11:37:13.519Z,31.07
2018-07-03T11:38:23.702Z,31.07
2018-07-03T11:39:33.859Z,31.18
2018-07-03T11:40:44.010Z,31.22
2018-07-03T11:41:54.318Z,31.2
2018-07-03T11:43:04.789Z,31.16
2018-07-03T11:44:14.979Z,31.04
2018-07-03T11:45:25.146Z,31.05
2018-07-03T11:46:35.250Z,30.97
2018-07-03T11:47:45.641Z,31.1
2018-07-03T11:48:55.840Z,31.1
2018-07-03T11:50:05.567Z,31.18
2018-07-03T11:51:15.786Z,31.2
2018-07-03T11:52:25.950Z,31.23
2018-07-03T11:53:36.307Z,31.23
2018-07-03T11:54:46.658Z,31.2
2018-07-03T11:55:56.857Z,31.07
2018-07-03T11:57:07.049Z,31.09
2018-07-03T11:58:17.317Z,30.98
2018-07-03T11:59:27.524Z,31.05
2018-07-03T12:00:37.713Z,30.93
2018-07-03T12:01:48.061Z,30.83
2018-07-03T12:02:58.296Z,30.81
2018-07-03T12:04:08.524Z,30.69
2018-07-03T12:05:18.783Z,30.67
2018-07-03T12:06:28.705Z,30.39
2018-07-03T12:07:38.906Z,30.38
2018-07-03T12:08:50.066Z,30.41
2018-07-03T12:10:00.248Z,30.26
2018-07-03T12:11:10.502Z,30.25
2018-07-03T12:12:21.047Z,30.22
2018-07-03T12:13:30.978Z,30.37
2018-07-03T12:14:41.225Z,30.29
2018-07-03T12:15:51.383Z,30.32
2018-07-03T12:17:01.568Z,30.38
2018-07-03T12:18:11.751Z,30.32
2018-07-03T12:19:23.082Z,30.25
2018-07-03T12:20:33.277Z,30.32
2018-07-03T12:21:43.287Z,30.29
2018-07-03T12:22:53.207Z,30.32
2018-07-03T12:24:03.601Z,30.33
2018-07-03T12:25:14.777Z,30.2
2018-07-03T12:26:25.168Z,30.2
2018-07-03T12:27:35.395Z,30.11
2018-07-03T12:28:45.672Z,30.14
2018-07-03T12:29:56.025Z,29.94
2018-07-03T12:31:06.188Z,29.87
2018-07-03T12:32:16.552Z,29.76
2018-07-03T12:33:26.732Z,29.76
2018-07-03T12:34:36.883Z,29.73
2018-07-03T12:35:46.780Z,29.75
2018-07-03T12:36:56.614Z,29.65
2018-07-03T12:38:06.798Z,29.55
2018-07-03T12:39:16.988Z,29.48
2018-07-03T12:40:27.350Z,29.16
2018-07-03T12:41:37.532Z,29.03
2018-07-03T12:42:47.785Z,29.06
2018-07-03T12:43:57.965Z,29.01
2018-07-03T12:45:08.205Z,28.91
2018-07-03T12:46:18.418Z,28.72
2018-07-03T12:47:28.405Z,28.61
2018-07-03T12:48:38.214Z,28.45
2018-07-03T12:49:48.217Z,28.44
2018-07-03T12:50:58.558Z,28.32
2018-07-03T12:52:08.776Z,28.14
2018-07-03T12:53:18.957Z,27.97
2018-07-03T12:54:29.118Z,27.74
2018-07-03T12:55:39.399Z,27.76
2018-07-03T12:56:49.560Z,27.64
2018-07-03T12:57:59.953Z,27.71
2018-07-03T12:59:09.896Z,27.63
2018-07-03T13:00:21.154Z,27.72
2018-07-03T13:01:31.346Z,27.7
2018-07-03T13:02:41.585Z,27.71
2018-07-03T13:03:51.707Z,27.68
2018-07-03T13:05:02.048Z,27.74
2018-07-03T13:06:12.376Z,27.72
2018-07-03T13:07:22.311Z,27.72
2018-07-03T13:08:32.469Z,27.64
2018-07-03T13:09:43.080Z,27.67
2018-07-03T13:10:53.255Z,27.6
2018-07-03T13:12:03.428Z,27.52
2018-07-03T13:13:13.588Z,27.49
2018-07-03T13:14:23.813Z,27.42
2018-07-03T13:15:34.014Z,27.37
2018-07-03T13:16:44.162Z,27.31
2018-07-03T13:17:54.382Z,27.41
2018-07-03T13:19:04.667Z,27.34
2018-07-03T13:20:15.653Z,27.34
2018-07-03T13:21:26.065Z,27.26
2018-07-03T13:22:36.297Z,27.28
2018-07-03T13:23:46.689Z,27.26
2018-07-03T13:24:56.866Z,27.27
2018-07-03T13:26:07.034Z,27.28
2018-07-03T13:27:17.266Z,27.14
2018-07-03T13:28:27.444Z,27.03
2018-07-03T13:29:37.385Z,26.99
2018-07-03T13:30:47.377Z,26.96
2018-07-03T13:31:57.578Z,26.86
2018-07-03T13:33:07.844Z,26.86
2018-07-03T13:34:18.082Z,26.86
2018-07-03T13:35:28.321Z,26.78
2018-07-03T13:36:38.340Z,26.77
2018-07-03T13:37:47.877Z,26.74
2018-07-03T13:38:58.181Z,26.77
2018-07-03T13:40:08.330Z,26.82
2018-07-03T13:41:18.627Z,26.75
2018-07-03T13:42:28.812Z,26.73
2018-07-03T13:43:38.364Z,26.8
2018-07-03T13:44:48.073Z,26.78
2018-07-03T13:45:58.386Z,26.78
2018-07-03T13:47:08.596Z,26.82
2018-07-03T13:48:19.362Z,26.68
2018-07-03T13:49:29.799Z,26.67
2018-07-03T13:50:40.011Z,26.52
2018-07-03T13:51:50.161Z,26.52
2018-07-03T13:53:00.319Z,26.45
2018-07-03T13:54:10.257Z,26.51
2018-07-03T13:55:20.578Z,26.66
2018-07-03T13:56:30.764Z,26.55
2018-07-03T13:57:41.073Z,26.73
2018-07-03T13:58:51.288Z,26.7
2018-07-03T14:00:01.202Z,26.8
2018-07-03T14:01:11.375Z,26.7
2018-07-03T14:02:21.635Z,26.67
2018-07-03T14:03:31.853Z,26.68
2018-07-03T14:04:42.007Z,26.78
2018-07-03T14:05:52.255Z,26.8
2018-07-03T14:07:02.433Z,26.74
2018-07-03T14:08:12.380Z,26.78
2018-07-03T14:09:22.530Z,26.78
2018-07-03T14:10:32.443Z,26.77
2018-07-03T14:11:42.434Z,26.68
2018-07-03T14:12:52.634Z,26.59
2018-07-03T14:14:02.836Z,26.71
2018-07-03T14:15:13.011Z,26.62
2018-07-03T14:16:23.203Z,26.68
2018-07-03T14:17:33.402Z,26.64
2018-07-03T14:18:43.623Z,26.56
2018-07-03T14:19:53.788Z,26.56
2018-07-03T14:21:04.130Z,26.59
2018-07-03T14:22:14.565Z,26.59
2018-07-03T14:23:24.506Z,26.49
2018-07-03T14:24:34.764Z,26.45
2018-07-03T14:25:45.758Z,26.49
2018-07-03T14:26:55.917Z,26.39
2018-07-03T14:28:06.071Z,26.36
2018-07-03T14:29:16.250Z,26.43
2018-07-03T14:30:26.467Z,26.4
2018-07-03T14:31:36.661Z,26.37
2018-07-03T14:32:46.467Z,26.45
2018-07-03T14:33:58.581Z,26.36
2018-07-03T14:35:08.741Z,26.31
2018-07-03T14:36:18.991Z,26.27
2018-07-03T14:37:29.238Z,26.27
2018-07-03T14:38:39.687Z,26.34
2018-07-03T14:39:49.956Z,26.36
2018-07-03T14:41:00.123Z,26.39
2018-07-03T14:42:10.267Z,26.37
2018-07-03T14:43:20.453Z,26.34
2018-07-03T14:44:30.617Z,26.4
2018-07-03T14:45:42.036Z,26.31
2018-07-03T14:46:52.214Z,26.22
2018-07-03T14:48:02.625Z,26.24
2018-07-03T14:49:13.609Z,26.27
2018-07-03T14:50:24.616Z,26.24
2018-07-03T14:51:34.791Z,26.12
2018-07-03T14:52:45.014Z,26
2018-07-03T14:53:55.230Z,26.16
2018-07-03T14:55:05.405Z,26.11
2018-07-03T14:56:16.037Z,26.14
2018-07-03T14:57:26.195Z,26.16
2018-07-03T14:58:36.357Z,26.11
2018-07-03T14:59:46.528Z,26.07
2018-07-03T15:00:56.694Z,26.04
2018-07-03T15:02:06.718Z,26.12
2018-07-03T15:03:16.996Z,26.09
2018-07-03T15:04:26.690Z,26.16
2018-07-03T15:05:36.590Z,26.09
2018-07-03T15:06:46.784Z,26.16
2018-07-03T15:07:56.963Z,26.21
2018-07-03T15:09:06.987Z,26.25
2018-07-03T15:10:16.973Z,26.25
2018-07-03T15:11:27.199Z,26.19
2018-07-03T15:12:37.395Z,26.29
2018-07-03T15:13:47.312Z,26.3